Maricopa, Arizona
Current Conditions -  °F | °C
As of 5:55 AM on Friday 31 Oct 2014 (Local Time) from KCGZ Reporting Station
Clear Clear  
Wind Chill: 16°   Ceiling: Unl
Heat Index: 16°   Visibility: 10mi
Dew Point:   Wind: 0mph
Humidity: 45%   Direction: NA
Pressure: 29.93"   Gusts: NA
Location:  33.06°N, 112.05°W
Report Text: KCGZ 311255Z AUTO 00000KT 10SM CLR 16/04 A2993 RMK AO1
Loading
Personal Weather Stations






























Interactive Weather Map
Tropical Storm Tracking
New forecast layout! Learn more

10-Day Weather Forecast

Advertisements
Track Severe Weather on mobile